TAF KBDN
KBDN 090527Z 0906/1006 32005KT P6SM BKN060 FM091500 24005KT P6SM BKN040 FM091800 26010G20KT P6SM OVC040 FM100000 30010G20KT P6SM -SN OVC050=
METAR KBDN
WC KBDN
WS KBDN
WV KBDN